Ibiraiaras, Brazil
Current Conditions -  °F | °C
As of 3:00 PM on Monday 22 Dec 2014 (Local Time) from SBPF Reporting Station
Overcast Overcast  
Wind Chill: 66°   Ceiling: 3000
Heat Index: 66°   Visibility: 6mi
Dew Point: 57°   Wind: 17mph
Humidity: 73%   Direction: 180°S
Pressure: 30"   Gusts: NA
Location:  28.41°S, 51.72°W
Report Text: SBPF 221700Z 18015KT 9999 SCT015 BKN030 OVC060 19/14 Q1016
Loading
Personal Weather Stations






























Interactive Weather Map New forecast layout! Learn more

10-Day Weather Forecast

Advertisements
Track Severe Weather on mobile